sensor_id;sensor_type;location;lat;lon;timestamp;P1;durP1;ratioP1;P2;durP2;ratioP2
8349;SDS011;60699;48.946;8.412;2023-04-06T00:00:10;4.22;;;3.83;;
8349;SDS011;60699;48.946;8.412;2023-04-06T00:02:37;3.97;;;3.67;;
8349;SDS011;60699;48.946;8.412;2023-04-06T00:05:04;4.78;;;4.38;;
8349;SDS011;60699;48.946;8.412;2023-04-06T00:07:32;5.18;;;4.75;;
8349;SDS011;60699;48.946;8.412;2023-04-06T00:10:00;4.30;;;3.88;;
8349;SDS011;60699;48.946;8.412;2023-04-06T00:12:27;5.55;;;4.13;;
8349;SDS011;60699;48.946;8.412;2023-04-06T00:14:54;4.57;;;3.47;;
8349;SDS011;60699;48.946;8.412;2023-04-06T00:17:22;10.13;;;4.70;;
8349;SDS011;60699;48.946;8.412;2023-04-06T00:19:49;4.18;;;3.78;;
8349;SDS011;60699;48.946;8.412;2023-04-06T00:22:16;4.45;;;4.05;;
8349;SDS011;60699;48.946;8.412;2023-04-06T00:24:43;5.38;;;4.18;;
8349;SDS011;60699;48.946;8.412;2023-04-06T00:27:12;3.75;;;3.45;;
8349;SDS011;60699;48.946;8.412;2023-04-06T00:29:39;4.53;;;4.07;;
8349;SDS011;60699;48.946;8.412;2023-04-06T00:32:06;4.05;;;3.65;;
8349;SDS011;60699;48.946;8.412;2023-04-06T00:34:33;4.53;;;4.22;;
8349;SDS011;60699;48.946;8.412;2023-04-06T00:37:00;4.28;;;3.90;;
8349;SDS011;60699;48.946;8.412;2023-04-06T00:39:27;3.97;;;3.60;;
8349;SDS011;60699;48.946;8.412;2023-04-06T00:41:54;4.50;;;4.10;;
8349;SDS011;60699;48.946;8.412;2023-04-06T00:44:23;4.38;;;3.97;;
8349;SDS011;60699;48.946;8.412;2023-04-06T00:46:50;4.70;;;2.75;;
8349;SDS011;60699;48.946;8.412;2023-04-06T00:49:18;5.00;;;3.95;;
8349;SDS011;60699;48.946;8.412;2023-04-06T00:51:45;4.43;;;3.92;;
8349;SDS011;60699;48.946;8.412;2023-04-06T00:54:12;3.83;;;3.33;;
8349;SDS011;60699;48.946;8.412;2023-04-06T00:56:39;4.97;;;4.57;;
8349;SDS011;60699;48.946;8.412;2023-04-06T00:59:08;4.00;;;3.60;;
8349;SDS011;60699;48.946;8.412;2023-04-06T01:01:37;4.43;;;3.38;;
8349;SDS011;60699;48.946;8.412;2023-04-06T01:04:04;3.65;;;3.35;;
8349;SDS011;60699;48.946;8.412;2023-04-06T01:06:31;5.05;;;4.40;;
8349;SDS011;60699;48.946;8.412;2023-04-06T01:08:58;4.50;;;4.15;;
8349;SDS011;60699;48.946;8.412;2023-04-06T01:11:25;4.43;;;4.03;;
8349;SDS011;60699;48.946;8.412;2023-04-06T01:13:52;4.03;;;3.72;;
8349;SDS011;60699;48.946;8.412;2023-04-06T01:16:19;5.95;;;3.83;;
8349;SDS011;60699;48.946;8.412;2023-04-06T01:18:48;6.03;;;4.28;;
8349;SDS011;60699;48.946;8.412;2023-04-06T01:21:15;4.82;;;4.03;;
8349;SDS011;60699;48.946;8.412;2023-04-06T01:23:44;6.45;;;3.90;;
8349;SDS011;60699;48.946;8.412;2023-04-06T01:26:11;5.20;;;3.60;;
8349;SDS011;60699;48.946;8.412;2023-04-06T01:28:38;3.88;;;3.58;;
8349;SDS011;60699;48.946;8.412;2023-04-06T01:31:06;4.63;;;3.45;;
8349;SDS011;60699;48.946;8.412;2023-04-06T01:33:33;4.10;;;3.80;;
8349;SDS011;60699;48.946;8.412;2023-04-06T01:36:00;4.07;;;3.80;;
8349;SDS011;60699;48.946;8.412;2023-04-06T01:38:27;4.60;;;4.20;;
8349;SDS011;60699;48.946;8.412;2023-04-06T01:40:56;4.25;;;3.85;;
8349;SDS011;60699;48.946;8.412;2023-04-06T01:43:23;4.97;;;3.95;;
8349;SDS011;60699;48.946;8.412;2023-04-06T01:45:50;5.38;;;4.65;;
8349;SDS011;60699;48.946;8.412;2023-04-06T01:48:17;6.50;;;3.78;;
8349;SDS011;60699;48.946;8.412;2023-04-06T01:50:44;4.10;;;3.75;;
8349;SDS011;60699;48.946;8.412;2023-04-06T01:53:11;4.15;;;3.85;;
8349;SDS011;60699;48.946;8.412;2023-04-06T01:55:39;3.45;;;3.15;;
8349;SDS011;60699;48.946;8.412;2023-04-06T01:58:07;4.38;;;3.65;;
8349;SDS011;60699;48.946;8.412;2023-04-06T02:00:34;5.35;;;3.35;;
8349;SDS011;60699;48.946;8.412;2023-04-06T02:03:01;4.40;;;4.05;;
8349;SDS011;60699;48.946;8.412;2023-04-06T02:05:29;4.78;;;3.58;;
8349;SDS011;60699;48.946;8.412;2023-04-06T02:07:58;3.80;;;3.50;;
8349;SDS011;60699;48.946;8.412;2023-04-06T02:10:25;3.88;;;3.55;;
8349;SDS011;60699;48.946;8.412;2023-04-06T02:12:52;6.78;;;4.47;;
8349;SDS011;60699;48.946;8.412;2023-04-06T02:15:20;4.50;;;4.15;;
8349;SDS011;60699;48.946;8.412;2023-04-06T02:17:47;4.18;;;3.88;;
8349;SDS011;60699;48.946;8.412;2023-04-06T02:20:14;3.70;;;3.40;;
8349;SDS011;60699;48.946;8.412;2023-04-06T02:22:41;3.80;;;3.60;;
8349;SDS011;60699;48.946;8.412;2023-04-06T02:25:08;4.63;;;4.28;;
8349;SDS011;60699;48.946;8.412;2023-04-06T02:27:35;4.53;;;4.05;;
8349;SDS011;60699;48.946;8.412;2023-04-06T02:30:03;5.03;;;4.07;;
8349;SDS011;60699;48.946;8.412;2023-04-06T02:32:31;4.25;;;3.85;;
8349;SDS011;60699;48.946;8.412;2023-04-06T02:34:58;5.40;;;3.92;;
8349;SDS011;60699;48.946;8.412;2023-04-06T02:37:25;4.38;;;3.38;;
8349;SDS011;60699;48.946;8.412;2023-04-06T02:39:52;3.83;;;3.53;;
8349;SDS011;60699;48.946;8.412;2023-04-06T02:42:20;4.70;;;3.45;;
8349;SDS011;60699;48.946;8.412;2023-04-06T02:44:47;4.75;;;4.22;;
8349;SDS011;60699;48.946;8.412;2023-04-06T02:47:14;5.22;;;3.83;;
8349;SDS011;60699;48.946;8.412;2023-04-06T02:49:42;4.10;;;3.80;;
8349;SDS011;60699;48.946;8.412;2023-04-06T02:52:10;3.95;;;3.33;;
8349;SDS011;60699;48.946;8.412;2023-04-06T02:54:37;3.88;;;3.58;;
8349;SDS011;60699;48.946;8.412;2023-04-06T02:57:04;3.80;;;3.50;;
8349;SDS011;60699;48.946;8.412;2023-04-06T02:59:31;5.75;;;3.75;;
8349;SDS011;60699;48.946;8.412;2023-04-06T03:01:58;4.50;;;3.75;;
8349;SDS011;60699;48.946;8.412;2023-04-06T03:04:25;4.18;;;3.80;;
8349;SDS011;60699;48.946;8.412;2023-04-06T03:06:54;3.72;;;3.42;;
8349;SDS011;60699;48.946;8.412;2023-04-06T03:09:22;3.47;;;3.20;;
8349;SDS011;60699;48.946;8.412;2023-04-06T03:11:49;3.50;;;3.30;;
8349;SDS011;60699;48.946;8.412;2023-04-06T03:14:16;3.45;;;3.25;;
8349;SDS011;60699;48.946;8.412;2023-04-06T03:16:46;6.95;;;4.07;;
8349;SDS011;60699;48.946;8.412;2023-04-06T03:19:13;4.72;;;3.53;;
8349;SDS011;60699;48.946;8.412;2023-04-06T03:21:40;3.80;;;3.17;;
8349;SDS011;60699;48.946;8.412;2023-04-06T03:24:09;3.58;;;3.30;;
8349;SDS011;60699;48.946;8.412;2023-04-06T03:26:36;3.70;;;3.38;;
8349;SDS011;60699;48.946;8.412;2023-04-06T03:29:03;3.65;;;3.35;;
8349;SDS011;60699;48.946;8.412;2023-04-06T03:31:30;3.70;;;3.40;;
8349;SDS011;60699;48.946;8.412;2023-04-06T03:33:57;4.78;;;3.65;;
8349;SDS011;60699;48.946;8.412;2023-04-06T03:36:24;5.05;;;4.65;;
8349;SDS011;60699;48.946;8.412;2023-04-06T03:38:51;3.25;;;3.05;;
8349;SDS011;60699;48.946;8.412;2023-04-06T03:41:20;4.15;;;3.50;;
8349;SDS011;60699;48.946;8.412;2023-04-06T03:43:47;3.30;;;3.00;;
8349;SDS011;60699;48.946;8.412;2023-04-06T03:46:14;5.13;;;3.90;;
8349;SDS011;60699;48.946;8.412;2023-04-06T03:48:41;4.00;;;3.70;;
8349;SDS011;60699;48.946;8.412;2023-04-06T03:51:08;4.13;;;3.67;;
8349;SDS011;60699;48.946;8.412;2023-04-06T03:53:35;4.90;;;3.65;;
8349;SDS011;60699;48.946;8.412;2023-04-06T03:56:03;4.95;;;3.90;;
8349;SDS011;60699;48.946;8.412;2023-04-06T03:58:31;8.40;;;3.63;;
8349;SDS011;60699;48.946;8.412;2023-04-06T04:00:58;3.75;;;3.45;;
8349;SDS011;60699;48.946;8.412;2023-04-06T04:03:25;6.05;;;4.05;;
8349;SDS011;60699;48.946;8.412;2023-04-06T04:05:53;4.20;;;3.80;;
8349;SDS011;60699;48.946;8.412;2023-04-06T04:08:20;7.55;;;4.25;;
8349;SDS011;60699;48.946;8.412;2023-04-06T04:10:47;4.10;;;3.15;;
8349;SDS011;60699;48.946;8.412;2023-04-06T04:13:14;6.25;;;3.88;;
8349;SDS011;60699;48.946;8.412;2023-04-06T04:15:43;5.43;;;3.80;;
8349;SDS011;60699;48.946;8.412;2023-04-06T04:18:12;4.40;;;3.33;;
8349;SDS011;60699;48.946;8.412;2023-04-06T04:20:39;3.75;;;3.45;;
8349;SDS011;60699;48.946;8.412;2023-04-06T04:23:06;4.57;;;4.18;;
8349;SDS011;60699;48.946;8.412;2023-04-06T04:25:33;3.22;;;2.78;;
8349;SDS011;60699;48.946;8.412;2023-04-06T04:28:00;4.43;;;4.05;;
8349;SDS011;60699;48.946;8.412;2023-04-06T04:30:27;6.50;;;4.00;;
8349;SDS011;60699;48.946;8.412;2023-04-06T04:32:55;4.93;;;4.43;;
8349;SDS011;60699;48.946;8.412;2023-04-06T04:35:22;4.40;;;3.65;;
8349;SDS011;60699;48.946;8.412;2023-04-06T04:37:49;3.63;;;3.33;;
8349;SDS011;60699;48.946;8.412;2023-04-06T04:40:17;4.82;;;4.13;;
8349;SDS011;60699;48.946;8.412;2023-04-06T04:42:44;4.60;;;4.30;;
8349;SDS011;60699;48.946;8.412;2023-04-06T04:45:11;7.57;;;4.40;;
8349;SDS011;60699;48.946;8.412;2023-04-06T04:47:38;4.40;;;3.80;;
8349;SDS011;60699;48.946;8.412;2023-04-06T04:50:07;7.10;;;4.30;;
8349;SDS011;60699;48.946;8.412;2023-04-06T04:52:34;5.25;;;3.85;;
8349;SDS011;60699;48.946;8.412;2023-04-06T04:55:01;6.07;;;4.03;;
8349;SDS011;60699;48.946;8.412;2023-04-06T04:57:28;7.57;;;3.55;;
8349;SDS011;60699;48.946;8.412;2023-04-06T04:59:55;4.20;;;3.65;;
8349;SDS011;60699;48.946;8.412;2023-04-06T05:02:23;5.00;;;4.07;;
8349;SDS011;60699;48.946;8.412;2023-04-06T05:04:50;4.45;;;4.05;;
8349;SDS011;60699;48.946;8.412;2023-04-06T05:07:18;5.15;;;4.00;;
8349;SDS011;60699;48.946;8.412;2023-04-06T05:09:45;5.13;;;4.72;;
8349;SDS011;60699;48.946;8.412;2023-04-06T05:12:13;4.15;;;3.85;;
8349;SDS011;60699;48.946;8.412;2023-04-06T05:14:40;4.85;;;3.95;;
8349;SDS011;60699;48.946;8.412;2023-04-06T05:17:07;3.65;;;3.30;;
8349;SDS011;60699;48.946;8.412;2023-04-06T05:19:35;4.70;;;4.28;;
8349;SDS011;60699;48.946;8.412;2023-04-06T05:22:02;3.75;;;3.35;;
8349;SDS011;60699;48.946;8.412;2023-04-06T05:24:30;4.93;;;4.50;;
8349;SDS011;60699;48.946;8.412;2023-04-06T05:26:57;5.80;;;4.07;;
8349;SDS011;60699;48.946;8.412;2023-04-06T05:29:25;6.03;;;4.70;;
8349;SDS011;60699;48.946;8.412;2023-04-06T05:31:52;4.35;;;4.05;;
8349;SDS011;60699;48.946;8.412;2023-04-06T05:34:19;9.07;;;4.68;;
8349;SDS011;60699;48.946;8.412;2023-04-06T05:36:46;5.10;;;4.35;;
8349;SDS011;60699;48.946;8.412;2023-04-06T05:39:13;3.70;;;3.50;;
8349;SDS011;60699;48.946;8.412;2023-04-06T05:41:42;7.40;;;4.63;;
8349;SDS011;60699;48.946;8.412;2023-04-06T05:44:09;5.50;;;4.97;;
8349;SDS011;60699;48.946;8.412;2023-04-06T05:46:36;4.68;;;4.10;;
8349;SDS011;60699;48.946;8.412;2023-04-06T05:49:03;5.63;;;4.60;;
8349;SDS011;60699;48.946;8.412;2023-04-06T05:51:30;4.75;;;4.35;;
8349;SDS011;60699;48.946;8.412;2023-04-06T05:53:57;5.30;;;4.30;;
8349;SDS011;60699;48.946;8.412;2023-04-06T05:56:24;5.25;;;4.85;;
8349;SDS011;60699;48.946;8.412;2023-04-06T05:58:52;4.35;;;3.92;;
8349;SDS011;60699;48.946;8.412;2023-04-06T06:01:19;5.47;;;4.80;;
8349;SDS011;60699;48.946;8.412;2023-04-06T06:03:46;4.90;;;4.50;;
8349;SDS011;60699;48.946;8.412;2023-04-06T06:06:13;4.30;;;4.00;;
8349;SDS011;60699;48.946;8.412;2023-04-06T06:08:40;5.45;;;4.95;;
8349;SDS011;60699;48.946;8.412;2023-04-06T06:11:07;4.78;;;4.28;;
8349;SDS011;60699;48.946;8.412;2023-04-06T06:13:35;10.73;;;5.10;;
8349;SDS011;60699;48.946;8.412;2023-04-06T06:16:03;5.20;;;4.70;;
8349;SDS011;60699;48.946;8.412;2023-04-06T06:18:30;4.75;;;4.35;;
8349;SDS011;60699;48.946;8.412;2023-04-06T06:20:58;5.50;;;5.05;;
8349;SDS011;60699;48.946;8.412;2023-04-06T06:23:25;6.80;;;6.18;;
8349;SDS011;60699;48.946;8.412;2023-04-06T06:25:52;5.57;;;4.93;;
8349;SDS011;60699;48.946;8.412;2023-04-06T06:28:21;6.53;;;5.78;;
8349;SDS011;60699;48.946;8.412;2023-04-06T06:30:50;5.15;;;4.65;;
8349;SDS011;60699;48.946;8.412;2023-04-06T06:33:18;5.72;;;5.18;;
8349;SDS011;60699;48.946;8.412;2023-04-06T06:35:45;5.68;;;5.15;;
8349;SDS011;60699;48.946;8.412;2023-04-06T06:38:12;5.88;;;5.07;;
8349;SDS011;60699;48.946;8.412;2023-04-06T06:40:40;7.32;;;5.20;;
8349;SDS011;60699;48.946;8.412;2023-04-06T06:43:07;5.45;;;5.05;;
8349;SDS011;60699;48.946;8.412;2023-04-06T06:45:34;6.47;;;5.75;;
8349;SDS011;60699;48.946;8.412;2023-04-06T06:48:01;5.95;;;5.45;;
8349;SDS011;60699;48.946;8.412;2023-04-06T06:50:30;10.00;;;4.82;;
8349;SDS011;60699;48.946;8.412;2023-04-06T06:52:57;5.97;;;5.38;;
8349;SDS011;60699;48.946;8.412;2023-04-06T06:55:24;6.35;;;5.75;;
8349;SDS011;60699;48.946;8.412;2023-04-06T06:57:51;5.93;;;5.40;;
8349;SDS011;60699;48.946;8.412;2023-04-06T07:00:18;5.90;;;5.32;;
8349;SDS011;60699;48.946;8.412;2023-04-06T07:02:46;5.95;;;5.35;;
8349;SDS011;60699;48.946;8.412;2023-04-06T07:05:13;9.90;;;5.45;;
8349;SDS011;60699;48.946;8.412;2023-04-06T07:07:42;12.73;;;5.85;;
8349;SDS011;60699;48.946;8.412;2023-04-06T07:10:10;5.88;;;5.38;;
8349;SDS011;60699;48.946;8.412;2023-04-06T07:12:37;5.88;;;5.30;;
8349;SDS011;60699;48.946;8.412;2023-04-06T07:15:05;6.45;;;5.38;;
8349;SDS011;60699;48.946;8.412;2023-04-06T07:17:32;5.55;;;5.05;;
8349;SDS011;60699;48.946;8.412;2023-04-06T07:19:59;5.63;;;5.05;;
8349;SDS011;60699;48.946;8.412;2023-04-06T07:22:26;6.13;;;5.40;;
8349;SDS011;60699;48.946;8.412;2023-04-06T07:24:54;6.18;;;5.28;;
8349;SDS011;60699;48.946;8.412;2023-04-06T07:27:21;6.03;;;5.13;;
8349;SDS011;60699;48.946;8.412;2023-04-06T07:29:48;5.55;;;5.05;;
8349;SDS011;60699;48.946;8.412;2023-04-06T07:32:15;6.95;;;5.85;;
8349;SDS011;60699;48.946;8.412;2023-04-06T07:34:42;5.50;;;5.10;;
8349;SDS011;60699;48.946;8.412;2023-04-06T07:37:11;5.57;;;5.05;;
8349;SDS011;60699;48.946;8.412;2023-04-06T07:39:38;6.78;;;5.53;;
8349;SDS011;60699;48.946;8.412;2023-04-06T07:42:07;6.82;;;4.88;;
8349;SDS011;60699;48.946;8.412;2023-04-06T07:44:34;5.20;;;4.30;;
8349;SDS011;60699;48.946;8.412;2023-04-06T07:47:01;6.43;;;5.93;;
8349;SDS011;60699;48.946;8.412;2023-04-06T07:49:28;8.73;;;5.57;;
8349;SDS011;60699;48.946;8.412;2023-04-06T07:51:55;5.90;;;5.22;;
8349;SDS011;60699;48.946;8.412;2023-04-06T07:54:22;6.75;;;5.90;;
8349;SDS011;60699;48.946;8.412;2023-04-06T07:56:49;5.55;;;5.13;;
8349;SDS011;60699;48.946;8.412;2023-04-06T07:59:18;5.30;;;4.80;;
8349;SDS011;60699;48.946;8.412;2023-04-06T08:01:45;8.27;;;6.25;;
8349;SDS011;60699;48.946;8.412;2023-04-06T08:04:12;5.53;;;5.05;;
8349;SDS011;60699;48.946;8.412;2023-04-06T08:06:39;5.80;;;5.22;;
8349;SDS011;60699;48.946;8.412;2023-04-06T08:09:06;5.95;;;5.10;;
8349;SDS011;60699;48.946;8.412;2023-04-06T08:11:33;8.65;;;6.75;;
8349;SDS011;60699;48.946;8.412;2023-04-06T08:14:00;8.30;;;5.47;;
8349;SDS011;60699;48.946;8.412;2023-04-06T08:16:28;5.70;;;5.20;;
8349;SDS011;60699;48.946;8.412;2023-04-06T08:18:55;6.95;;;5.95;;
8349;SDS011;60699;48.946;8.412;2023-04-06T08:21:22;9.60;;;5.38;;
8349;SDS011;60699;48.946;8.412;2023-04-06T08:23:50;7.22;;;6.40;;
8349;SDS011;60699;48.946;8.412;2023-04-06T08:26:17;6.22;;;5.25;;
8349;SDS011;60699;48.946;8.412;2023-04-06T08:28:44;4.93;;;4.53;;
8349;SDS011;60699;48.946;8.412;2023-04-06T08:31:11;9.13;;;5.95;;
8349;SDS011;60699;48.946;8.412;2023-04-06T08:33:39;6.88;;;5.57;;
8349;SDS011;60699;48.946;8.412;2023-04-06T08:36:07;8.07;;;5.45;;
8349;SDS011;60699;48.946;8.412;2023-04-06T08:38:34;6.30;;;5.70;;
8349;SDS011;60699;48.946;8.412;2023-04-06T08:41:06;8.95;;;5.97;;
8349;SDS011;60699;48.946;8.412;2023-04-06T08:43:33;6.35;;;5.80;;
8349;SDS011;60699;48.946;8.412;2023-04-06T08:46:01;8.10;;;6.50;;
8349;SDS011;60699;48.946;8.412;2023-04-06T08:48:29;6.85;;;5.10;;
8349;SDS011;60699;48.946;8.412;2023-04-06T08:50:58;6.55;;;5.82;;
8349;SDS011;60699;48.946;8.412;2023-04-06T08:53:25;5.68;;;5.20;;
8349;SDS011;60699;48.946;8.412;2023-04-06T08:55:53;10.65;;;6.03;;
8349;SDS011;60699;48.946;8.412;2023-04-06T08:58:20;6.00;;;5.30;;
8349;SDS011;60699;48.946;8.412;2023-04-06T09:00:48;7.65;;;6.95;;
8349;SDS011;60699;48.946;8.412;2023-04-06T09:03:15;8.50;;;6.60;;
8349;SDS011;60699;48.946;8.412;2023-04-06T09:05:43;7.43;;;6.38;;
8349;SDS011;60699;48.946;8.412;2023-04-06T09:08:12;7.05;;;6.40;;
8349;SDS011;60699;48.946;8.412;2023-04-06T09:10:40;8.13;;;6.72;;
8349;SDS011;60699;48.946;8.412;2023-04-06T09:13:07;6.07;;;5.47;;
8349;SDS011;60699;48.946;8.412;2023-04-06T09:15:35;7.03;;;6.00;;
8349;SDS011;60699;48.946;8.412;2023-04-06T09:18:02;10.20;;;6.68;;
8349;SDS011;60699;48.946;8.412;2023-04-06T09:20:30;6.95;;;6.35;;
8349;SDS011;60699;48.946;8.412;2023-04-06T09:22:57;7.13;;;5.90;;
8349;SDS011;60699;48.946;8.412;2023-04-06T09:25:25;8.57;;;6.70;;
8349;SDS011;60699;48.946;8.412;2023-04-06T09:27:59;6.88;;;5.75;;
8349;SDS011;60699;48.946;8.412;2023-04-06T09:30:26;8.48;;;7.68;;
8349;SDS011;60699;48.946;8.412;2023-04-06T09:32:53;9.23;;;6.57;;
8349;SDS011;60699;48.946;8.412;2023-04-06T09:35:21;5.25;;;4.57;;
8349;SDS011;60699;48.946;8.412;2023-04-06T09:37:48;8.68;;;6.22;;
8349;SDS011;60699;48.946;8.412;2023-04-06T09:40:16;5.88;;;5.30;;
8349;SDS011;60699;48.946;8.412;2023-04-06T09:42:46;7.63;;;6.82;;
8349;SDS011;60699;48.946;8.412;2023-04-06T09:45:13;8.35;;;6.85;;
8349;SDS011;60699;48.946;8.412;2023-04-06T09:47:42;8.18;;;6.70;;
8349;SDS011;60699;48.946;8.412;2023-04-06T09:50:10;6.85;;;6.15;;
8349;SDS011;60699;48.946;8.412;2023-04-06T09:52:38;6.53;;;5.82;;
8349;SDS011;60699;48.946;8.412;2023-04-06T09:55:07;8.07;;;6.43;;
8349;SDS011;60699;48.946;8.412;2023-04-06T09:57:37;8.20;;;6.47;;
8349;SDS011;60699;48.946;8.412;2023-04-06T10:00:06;8.52;;;7.15;;
8349;SDS011;60699;48.946;8.412;2023-04-06T10:02:38;9.23;;;7.15;;
8349;SDS011;60699;48.946;8.412;2023-04-06T10:05:08;6.40;;;5.90;;
8349;SDS011;60699;48.946;8.412;2023-04-06T10:07:36;9.43;;;7.07;;
8349;SDS011;60699;48.946;8.412;2023-04-06T10:10:03;10.30;;;6.60;;
8349;SDS011;60699;48.946;8.412;2023-04-06T10:12:30;6.80;;;6.20;;
8349;SDS011;60699;48.946;8.412;2023-04-06T10:14:58;11.13;;;6.82;;
8349;SDS011;60699;48.946;8.412;2023-04-06T10:17:26;7.78;;;5.75;;
8349;SDS011;60699;48.946;8.412;2023-04-06T10:19:54;9.95;;;7.22;;
8349;SDS011;60699;48.946;8.412;2023-04-06T10:22:23;9.63;;;6.80;;
8349;SDS011;60699;48.946;8.412;2023-04-06T10:24:51;8.57;;;6.50;;
8349;SDS011;60699;48.946;8.412;2023-04-06T10:27:26;11.40;;;7.10;;
8349;SDS011;60699;48.946;8.412;2023-04-06T10:29:54;8.50;;;6.80;;
8349;SDS011;60699;48.946;8.412;2023-04-06T10:32:32;10.50;;;6.63;;
8349;SDS011;60699;48.946;8.412;2023-04-06T10:35:10;7.13;;;6.43;;
8349;SDS011;60699;48.946;8.412;2023-04-06T10:37:48;6.95;;;6.18;;
8349;SDS011;60699;48.946;8.412;2023-04-06T10:40:19;8.52;;;6.57;;
8349;SDS011;60699;48.946;8.412;2023-04-06T10:42:46;7.75;;;6.85;;
8349;SDS011;60699;48.946;8.412;2023-04-06T10:45:20;10.65;;;7.18;;
8349;SDS011;60699;48.946;8.412;2023-04-06T10:47:48;6.75;;;6.05;;
8349;SDS011;60699;48.946;8.412;2023-04-06T10:50:16;10.27;;;7.38;;
8349;SDS011;60699;48.946;8.412;2023-04-06T10:52:43;8.23;;;6.18;;
8349;SDS011;60699;48.946;8.412;2023-04-06T10:55:11;6.72;;;5.68;;
8349;SDS011;60699;48.946;8.412;2023-04-06T10:57:39;8.32;;;6.82;;
8349;SDS011;60699;48.946;8.412;2023-04-06T11:00:07;8.35;;;6.43;;
8349;SDS011;60699;48.946;8.412;2023-04-06T11:02:34;5.63;;;5.13;;
8349;SDS011;60699;48.946;8.412;2023-04-06T11:05:04;7.65;;;6.40;;
8349;SDS011;60699;48.946;8.412;2023-04-06T11:07:31;7.85;;;6.30;;
8349;SDS011;60699;48.946;8.412;2023-04-06T11:09:58;8.55;;;6.00;;
8349;SDS011;60699;48.946;8.412;2023-04-06T11:12:26;9.93;;;6.53;;
8349;SDS011;60699;48.946;8.412;2023-04-06T11:14:55;8.60;;;6.20;;
8349;SDS011;60699;48.946;8.412;2023-04-06T11:17:27;10.20;;;6.75;;
8349;SDS011;60699;48.946;8.412;2023-04-06T11:19:54;9.32;;;6.38;;
8349;SDS011;60699;48.946;8.412;2023-04-06T11:22:22;11.75;;;6.93;;
8349;SDS011;60699;48.946;8.412;2023-04-06T11:24:50;8.98;;;6.30;;
8349;SDS011;60699;48.946;8.412;2023-04-06T11:27:17;9.07;;;5.75;;
8349;SDS011;60699;48.946;8.412;2023-04-06T11:29:44;7.63;;;6.55;;
8349;SDS011;60699;48.946;8.412;2023-04-06T11:32:19;8.75;;;6.65;;
8349;SDS011;60699;48.946;8.412;2023-04-06T11:34:46;9.23;;;7.10;;
8349;SDS011;60699;48.946;8.412;2023-04-06T11:37:14;11.13;;;7.60;;
8349;SDS011;60699;48.946;8.412;2023-04-06T11:39:43;9.00;;;8.15;;
8349;SDS011;60699;48.946;8.412;2023-04-06T11:42:20;7.28;;;5.63;;
8349;SDS011;60699;48.946;8.412;2023-04-06T11:44:49;8.93;;;6.28;;
8349;SDS011;60699;48.946;8.412;2023-04-06T11:47:17;5.88;;;5.28;;
8349;SDS011;60699;48.946;8.412;2023-04-06T11:49:45;9.55;;;6.25;;
8349;SDS011;60699;48.946;8.412;2023-04-06T11:52:16;7.32;;;6.22;;
8349;SDS011;60699;48.946;8.412;2023-04-06T11:54:45;7.45;;;5.78;;
8349;SDS011;60699;48.946;8.412;2023-04-06T11:57:12;12.75;;;6.40;;
8349;SDS011;60699;48.946;8.412;2023-04-06T11:59:39;7.80;;;5.90;;
8349;SDS011;60699;48.946;8.412;2023-04-06T12:02:06;8.27;;;5.78;;
8349;SDS011;60699;48.946;8.412;2023-04-06T12:04:33;7.32;;;6.03;;
8349;SDS011;60699;48.946;8.412;2023-04-06T12:07:01;10.13;;;7.13;;
8349;SDS011;60699;48.946;8.412;2023-04-06T12:09:28;11.10;;;6.80;;
8349;SDS011;60699;48.946;8.412;2023-04-06T12:11:56;9.73;;;7.18;;
8349;SDS011;60699;48.946;8.412;2023-04-06T12:14:23;7.50;;;5.97;;
8349;SDS011;60699;48.946;8.412;2023-04-06T12:16:50;10.25;;;7.18;;
8349;SDS011;60699;48.946;8.412;2023-04-06T12:19:17;8.63;;;5.88;;
8349;SDS011;60699;48.946;8.412;2023-04-06T12:21:44;9.27;;;7.25;;
8349;SDS011;60699;48.946;8.412;2023-04-06T12:24:11;8.30;;;5.72;;
8349;SDS011;60699;48.946;8.412;2023-04-06T12:26:38;9.38;;;7.72;;
8349;SDS011;60699;48.946;8.412;2023-04-06T12:29:08;9.38;;;6.82;;
8349;SDS011;60699;48.946;8.412;2023-04-06T12:31:36;7.32;;;5.78;;
8349;SDS011;60699;48.946;8.412;2023-04-06T12:34:04;9.85;;;7.72;;
8349;SDS011;60699;48.946;8.412;2023-04-06T12:36:31;8.55;;;7.00;;
8349;SDS011;60699;48.946;8.412;2023-04-06T12:38:58;13.13;;;6.50;;
8349;SDS011;60699;48.946;8.412;2023-04-06T12:41:25;8.00;;;6.25;;
8349;SDS011;60699;48.946;8.412;2023-04-06T12:43:52;12.25;;;6.70;;
8349;SDS011;60699;48.946;8.412;2023-04-06T12:46:21;10.30;;;6.70;;
8349;SDS011;60699;48.946;8.412;2023-04-06T12:48:48;10.88;;;7.10;;
8349;SDS011;60699;48.946;8.412;2023-04-06T12:51:18;7.72;;;6.93;;
8349;SDS011;60699;48.946;8.412;2023-04-06T12:53:45;8.48;;;6.95;;
8349;SDS011;60699;48.946;8.412;2023-04-06T12:56:13;8.43;;;6.95;;
8349;SDS011;60699;48.946;8.412;2023-04-06T12:58:40;8.90;;;6.80;;
8349;SDS011;60699;48.946;8.412;2023-04-06T13:01:07;7.60;;;6.05;;
8349;SDS011;60699;48.946;8.412;2023-04-06T13:03:36;10.85;;;6.07;;
8349;SDS011;60699;48.946;8.412;2023-04-06T13:06:04;9.48;;;6.50;;
8349;SDS011;60699;48.946;8.412;2023-04-06T13:08:31;9.18;;;6.65;;
8349;SDS011;60699;48.946;8.412;2023-04-06T13:10:58;8.98;;;6.40;;
8349;SDS011;60699;48.946;8.412;2023-04-06T13:13:26;7.30;;;5.10;;
8349;SDS011;60699;48.946;8.412;2023-04-06T13:15:53;6.20;;;5.05;;
8349;SDS011;60699;48.946;8.412;2023-04-06T13:18:21;5.72;;;5.15;;
8349;SDS011;60699;48.946;8.412;2023-04-06T13:20:50;7.28;;;5.80;;
8349;SDS011;60699;48.946;8.412;2023-04-06T13:23:17;5.97;;;5.32;;
8349;SDS011;60699;48.946;8.412;2023-04-06T13:25:44;8.25;;;5.75;;
8349;SDS011;60699;48.946;8.412;2023-04-06T13:28:11;5.57;;;5.05;;
8349;SDS011;60699;48.946;8.412;2023-04-06T13:30:38;7.13;;;5.40;;
8349;SDS011;60699;48.946;8.412;2023-04-06T13:33:05;5.45;;;4.90;;
8349;SDS011;60699;48.946;8.412;2023-04-06T13:35:32;5.70;;;4.95;;
8349;SDS011;60699;48.946;8.412;2023-04-06T13:38:02;9.73;;;5.80;;
8349;SDS011;60699;48.946;8.412;2023-04-06T13:40:29;7.28;;;5.15;;
8349;SDS011;60699;48.946;8.412;2023-04-06T13:42:56;7.13;;;4.70;;
8349;SDS011;60699;48.946;8.412;2023-04-06T13:45:23;6.05;;;4.28;;
8349;SDS011;60699;48.946;8.412;2023-04-06T13:47:50;8.50;;;5.30;;
8349;SDS011;60699;48.946;8.412;2023-04-06T13:50:17;8.23;;;6.05;;
8349;SDS011;60699;48.946;8.412;2023-04-06T13:52:44;5.82;;;5.28;;
8349;SDS011;60699;48.946;8.412;2023-04-06T13:55:13;9.40;;;5.38;;
8349;SDS011;60699;48.946;8.412;2023-04-06T13:57:40;10.27;;;5.07;;
8349;SDS011;60699;48.946;8.412;2023-04-06T14:00:08;7.28;;;4.88;;
8349;SDS011;60699;48.946;8.412;2023-04-06T14:02:36;7.63;;;5.90;;
8349;SDS011;60699;48.946;8.412;2023-04-06T14:05:03;6.85;;;4.72;;
8349;SDS011;60699;48.946;8.412;2023-04-06T14:07:30;5.63;;;4.20;;
8349;SDS011;60699;48.946;8.412;2023-04-06T14:09:58;6.40;;;4.63;;
8349;SDS011;60699;48.946;8.412;2023-04-06T14:12:28;6.40;;;4.75;;
8349;SDS011;60699;48.946;8.412;2023-04-06T14:14:56;7.80;;;4.82;;
8349;SDS011;60699;48.946;8.412;2023-04-06T14:17:23;5.55;;;4.53;;
8349;SDS011;60699;48.946;8.412;2023-04-06T14:19:50;7.93;;;6.10;;
8349;SDS011;60699;48.946;8.412;2023-04-06T14:22:17;6.30;;;4.20;;
8349;SDS011;60699;48.946;8.412;2023-04-06T14:24:44;5.47;;;3.80;;
8349;SDS011;60699;48.946;8.412;2023-04-06T14:27:11;4.15;;;3.25;;
8349;SDS011;60699;48.946;8.412;2023-04-06T14:29:40;5.13;;;4.50;;
8349;SDS011;60699;48.946;8.412;2023-04-06T14:32:07;5.57;;;4.57;;
8349;SDS011;60699;48.946;8.412;2023-04-06T14:34:36;7.72;;;4.88;;
8349;SDS011;60699;48.946;8.412;2023-04-06T14:37:03;4.50;;;4.07;;
8349;SDS011;60699;48.946;8.412;2023-04-06T14:39:30;7.90;;;5.30;;
8349;SDS011;60699;48.946;8.412;2023-04-06T14:41:57;6.28;;;4.68;;
8349;SDS011;60699;48.946;8.412;2023-04-06T14:44:24;6.65;;;6.03;;
8349;SDS011;60699;48.946;8.412;2023-04-06T14:46:53;7.82;;;4.65;;
8349;SDS011;60699;48.946;8.412;2023-04-06T14:49:20;6.75;;;4.30;;
8349;SDS011;60699;48.946;8.412;2023-04-06T14:51:47;6.70;;;5.25;;
8349;SDS011;60699;48.946;8.412;2023-04-06T14:54:14;8.80;;;4.72;;
8349;SDS011;60699;48.946;8.412;2023-04-06T14:56:41;8.40;;;5.45;;
8349;SDS011;60699;48.946;8.412;2023-04-06T14:59:08;4.50;;;3.45;;
8349;SDS011;60699;48.946;8.412;2023-04-06T15:01:35;6.55;;;4.70;;